Time;durP1;ratioP1;P1;durP2;ratioP2;P2;SDS_P1;SDS_P2;PMS_P1;PMS_P2;Temp;Humidity;BMP_temperature;BMP_pressure;BME280_temperature;BME280_humidity;BME280_pressure;Samples;Min_cycle;Max_cycle;Signal;HPM_P1;HPM_P2
2023/03/17 00:02:07;;;;;;;;;;;;;;;7.36;89.56;100788.56;5025751;28;20309;-79
2023/03/17 00:04:32;;;;;;;;;;;;;;;7.41;88.76;100798.97;5018763;28;19923;-79
2023/03/17 00:06:58;;;;;;;;;;;;;;;7.35;89.34;100806.41;5005623;28;19921;-78
2023/03/17 00:09:24;;;;;;;;;;;;;;;7.38;89.30;100799.16;5015590;28;19971;-78
2023/03/17 00:11:49;;;;;;;;;;;;;;;7.25;89.07;100805.28;5003055;28;19917;-79
2023/03/17 00:14:15;;;;;;;;;;;;;;;7.25;89.28;100799.09;4984620;28;19921;-80
2023/03/17 00:16:41;;;;;;;;;;;;;;;7.15;91.45;100799.66;4981887;28;19968;-79
2023/03/17 00:19:09;;;;;;;;;;;;;;;7.06;91.28;100797.56;4997827;28;19929;-79
2023/03/17 00:21:34;;;;;;;;;;;;;;;6.98;92.10;100800.75;5000887;28;19921;-79
2023/03/17 00:24:00;;;;;;;;;;;;;;;7.03;91.56;100793.31;5000915;28;19964;-79
2023/03/17 00:26:25;;;;;;;;;;;;;;;7.11;90.86;100791.97;4985038;28;19991;-79
2023/03/17 00:28:51;;;;;;;;;;;;;;;7.13;90.33;100792.72;4986953;28;19923;-81
2023/03/17 00:31:19;;;;;;;;;;;;;;;7.04;89.22;100794.16;5014541;28;19921;-79
2023/03/17 00:33:45;;;;;;;;;;;;;;;7.18;88.90;100795.94;5017108;28;20374;-79
2023/03/17 00:36:12;;;;;;;;;;;;;;;7.22;87.66;100791.28;5003090;28;19921;-79
2023/03/17 00:38:38;;;;;;;;;;;;;;;6.92;90.36;100774.44;5004588;28;20016;-79
2023/03/17 00:41:03;;;;;;;;;;;;;;;7.03;88.40;100781.75;5024600;28;19931;-78
2023/03/17 00:43:29;;;;;;;;;;;;;;;7.14;88.07;100773.09;5011134;28;20673;-78
2023/03/17 00:45:54;;;;;;;;;;;;;;;6.99;90.16;100773.09;5005725;28;19921;-78
2023/03/17 00:48:20;;;;;;;;;;;;;;;7.12;88.74;100764.31;5002059;28;19965;-79
2023/03/17 00:50:46;;;;;;;;;;;;;;;6.93;88.65;100764.63;5017532;28;19921;-78
2023/03/17 00:53:13;;;;;;;;;;;;;;;6.85;89.20;100767.78;5009288;28;19973;-79
2023/03/17 00:55:38;;;;;;;;;;;;;;;6.90;88.74;100763.88;5026643;28;19928;-79
2023/03/17 00:58:15;;;;;;;;;;;;;;;6.87;89.78;100758.72;4991059;28;19925;-79
2023/03/17 01:00:40;;;;;;;;;;;;;;;6.97;88.70;100756.31;5021371;28;20445;-78
2023/03/17 01:03:07;;;;;;;;;;;;;;;6.97;88.89;100759.00;5027593;28;19924;-79
2023/03/17 01:05:32;;;;;;;;;;;;;;;6.84;89.30;100758.06;5007849;28;20314;-79
2023/03/17 01:07:57;;;;;;;;;;;;;;;6.94;88.14;100750.31;5018257;28;20360;-79
2023/03/17 01:10:24;;;;;;;;;;;;;;;6.86;89.93;100749.00;5005849;28;19931;-79
2023/03/17 01:12:50;;;;;;;;;;;;;;;6.73;89.65;100748.09;5008094;28;20006;-79
2023/03/17 01:15:16;;;;;;;;;;;;;;;6.81;89.35;100755.59;5011132;28;20411;-79
2023/03/17 01:17:41;;;;;;;;;;;;;;;6.76;89.53;100745.19;5019777;28;19932;-79
2023/03/17 01:20:18;;;;;;;;;;;;;;;6.73;90.48;100742.75;5002401;28;19925;-79
2023/03/17 01:22:44;;;;;;;;;;;;;;;6.83;90.05;100754.53;5022591;28;19925;-79
2023/03/17 01:25:10;;;;;;;;;;;;;;;6.73;90.32;100759.59;4992160;28;20512;-78
2023/03/17 01:27:36;;;;;;;;;;;;;;;6.81;91.61;100755.59;4989311;28;20097;-79
2023/03/17 01:30:02;;;;;;;;;;;;;;;6.90;91.02;100753.19;5002108;28;20486;-79
2023/03/17 01:32:28;;;;;;;;;;;;;;;6.49;94.37;100750.47;5018866;28;19925;-79
2023/03/17 01:34:53;;;;;;;;;;;;;;;6.39;93.94;100737.69;5005049;28;19975;-79
2023/03/17 01:37:20;;;;;;;;;;;;;;;6.49;92.51;100735.31;4990316;28;19931;-79
2023/03/17 01:39:46;;;;;;;;;;;;;;;6.55;92.64;100739.41;5010164;28;19929;-79
2023/03/17 01:42:12;;;;;;;;;;;;;;;6.69;90.50;100738.56;4985012;28;20322;-78
2023/03/17 01:44:55;;;;;;;;;;;;;;;6.60;90.09;100735.50;4989199;28;20331;-79
2023/03/17 01:47:20;;;;;;;;;;;;;;;6.55;90.45;100739.41;5003620;28;19921;-78
2023/03/17 01:49:46;;;;;;;;;;;;;;;6.60;91.52;100740.00;5001593;28;19951;-79
2023/03/17 01:52:14;;;;;;;;;;;;;;;6.56;90.16;100727.78;5021268;28;20045;-79
2023/03/17 01:54:49;;;;;;;;;;;;;;;6.52;89.75;100724.44;5016739;28;20383;-79
2023/03/17 01:57:18;;;;;;;;;;;;;;;6.53;91.06;100728.81;5016421;28;19924;-79
2023/03/17 01:59:45;;;;;;;;;;;;;;;6.45;92.94;100728.47;5016768;28;19968;-78
2023/03/17 02:02:12;;;;;;;;;;;;;;;6.51;91.88;100717.38;5000321;28;19928;-79
2023/03/17 02:04:37;;;;;;;;;;;;;;;6.32;93.54;100719.50;5001324;28;19921;-79
2023/03/17 02:07:03;;;;;;;;;;;;;;;6.09;94.98;100719.94;5006112;28;20405;-79
2023/03/17 02:09:30;;;;;;;;;;;;;;;6.14;94.42;100717.88;5014897;28;19925;-79
2023/03/17 02:11:55;;;;;;;;;;;;;;;6.27;94.27;100709.97;4999971;28;19967;-79
2023/03/17 02:14:20;;;;;;;;;;;;;;;6.24;93.22;100715.50;5001931;28;19921;-79
2023/03/17 02:16:46;;;;;;;;;;;;;;;6.29;93.78;100707.22;5001778;28;19959;-78
2023/03/17 02:19:11;;;;;;;;;;;;;;;6.21;93.37;100705.03;4990446;28;20019;-78
2023/03/17 02:21:39;;;;;;;;;;;;;;;6.12;92.24;100681.59;4981000;28;19925;-79
2023/03/17 02:24:06;;;;;;;;;;;;;;;6.27;91.64;100706.47;4986736;28;19945;-78
2023/03/17 02:26:31;;;;;;;;;;;;;;;6.19;94.06;100703.41;5018154;28;19921;-79
2023/03/17 02:28:56;;;;;;;;;;;;;;;6.26;94.16;100694.09;5015659;28;20265;-79
2023/03/17 02:31:23;;;;;;;;;;;;;;;6.17;92.82;100699.97;4999951;28;20301;-79
2023/03/17 02:33:48;;;;;;;;;;;;;;;6.32;92.45;100698.16;5014373;28;19921;-79
2023/03/17 02:36:14;;;;;;;;;;;;;;;6.35;91.78;100700.66;5001801;28;19928;-79
2023/03/17 02:38:40;;;;;;;;;;;;;;;6.34;92.75;100696.25;4988070;28;19975;-79
2023/03/17 02:41:06;;;;;;;;;;;;;;;6.45;90.94;100691.13;5003499;28;19930;-79
2023/03/17 02:43:31;;;;;;;;;;;;;;;6.55;90.48;100704.75;4982772;28;19921;-79
2023/03/17 02:45:56;;;;;;;;;;;;;;;6.45;91.11;100688.47;5013902;28;20381;-79
2023/03/17 02:48:22;;;;;;;;;;;;;;;6.37;92.29;100690.75;5007894;28;19995;-79
2023/03/17 02:50:47;;;;;;;;;;;;;;;6.52;89.92;100687.09;5008756;28;19935;-79
2023/03/17 02:53:12;;;;;;;;;;;;;;;6.54;91.41;100677.19;5016985;28;19933;-79
2023/03/17 02:55:38;;;;;;;;;;;;;;;6.51;90.25;100680.03;5000776;28;19929;-79
2023/03/17 02:58:03;;;;;;;;;;;;;;;6.57;90.30;100679.66;5003962;28;20039;-79
2023/03/17 03:00:28;;;;;;;;;;;;;;;6.54;89.31;100674.53;5010866;28;19925;-79
2023/03/17 03:02:54;;;;;;;;;;;;;;;6.55;90.83;100676.25;5020949;28;19994;-80
2023/03/17 03:05:19;;;;;;;;;;;;;;;6.68;90.26;100691.47;5004941;28;19921;-79
2023/03/17 03:07:45;;;;;;;;;;;;;;;6.50;91.17;100678.34;5015059;28;20357;-80
2023/03/17 03:10:10;;;;;;;;;;;;;;;6.51;89.41;100679.22;4997624;28;19969;-79
2023/03/17 03:12:35;;;;;;;;;;;;;;;6.60;89.19;100673.28;5004331;28;19923;-79
2023/03/17 03:15:00;;;;;;;;;;;;;;;6.70;88.32;100671.72;5001831;28;19920;-79
2023/03/17 03:17:26;;;;;;;;;;;;;;;6.65;88.93;100676.50;5002124;28;20570;-80
2023/03/17 03:19:51;;;;;;;;;;;;;;;6.63;90.02;100682.91;4986563;28;19927;-79
2023/03/17 03:22:16;;;;;;;;;;;;;;;6.71;89.72;100680.63;4987011;28;20425;-78
2023/03/17 03:24:41;;;;;;;;;;;;;;;6.67;89.06;100684.44;5005742;28;20007;-78
2023/03/17 03:27:07;;;;;;;;;;;;;;;6.54;89.60;100674.53;5015073;28;19928;-79
2023/03/17 03:29:32;;;;;;;;;;;;;;;6.62;89.81;100679.41;4998620;28;19927;-78
2023/03/17 03:31:57;;;;;;;;;;;;;;;6.67;90.15;100679.94;4985203;28;19921;-79
2023/03/17 03:34:22;;;;;;;;;;;;;;;6.54;90.56;100679.84;4982150;28;19925;-79
2023/03/17 03:36:48;;;;;;;;;;;;;;;6.48;90.63;100682.06;5019124;28;19921;-79
2023/03/17 03:39:13;;;;;;;;;;;;;;;6.63;89.47;100693.56;5007519;28;20016;-79
2023/03/17 03:41:38;;;;;;;;;;;;;;;6.71;89.36;100694.78;5018531;28;19971;-78
2023/03/17 03:44:03;;;;;;;;;;;;;;;6.55;91.87;100691.41;5010874;28;20015;-79
2023/03/17 03:46:28;;;;;;;;;;;;;;;6.51;90.63;100689.88;5007886;28;19923;-79
2023/03/17 03:48:54;;;;;;;;;;;;;;;6.52;89.86;100680.91;5005367;28;19932;-79
2023/03/17 03:51:19;;;;;;;;;;;;;;;6.43;91.30;100680.53;5026906;28;19928;-79
2023/03/17 03:53:44;;;;;;;;;;;;;;;6.55;90.75;100694.91;5019921;28;19917;-78
2023/03/17 03:56:09;;;;;;;;;;;;;;;6.58;91.79;100700.06;5016337;28;20031;-79
2023/03/17 03:58:35;;;;;;;;;;;;;;;6.35;93.72;100698.84;5022456;28;20367;-79
2023/03/17 04:01:06;;;;;;;;;;;;;;;6.49;91.87;100689.94;5028047;28;19921;-79
2023/03/17 04:03:32;;;;;;;;;;;;;;;6.30;93.24;100708.94;4997860;28;20372;-79
2023/03/17 04:05:57;;;;;;;;;;;;;;;6.28;93.46;100714.34;5009381;28;19928;-79
2023/03/17 04:08:22;;;;;;;;;;;;;;;6.27;94.22;100712.63;5009214;28;19928;-77
2023/03/17 04:10:47;;;;;;;;;;;;;;;6.13;94.80;100712.66;5005221;28;20502;-78
2023/03/17 04:13:13;;;;;;;;;;;;;;;6.17;95.40;100713.31;5006900;28;20355;-79
2023/03/17 04:15:38;;;;;;;;;;;;;;;6.25;93.83;100719.03;5008810;28;21330;-78
2023/03/17 04:18:04;;;;;;;;;;;;;;;6.29;93.98;100709.91;5024571;28;19925;-79
2023/03/17 04:20:29;;;;;;;;;;;;;;;6.15;94.71;100713.41;4992303;28;20661;-79
2023/03/17 04:22:55;;;;;;;;;;;;;;;6.13;94.88;100707.31;5024834;28;19921;-78
2023/03/17 04:25:20;;;;;;;;;;;;;;;5.86;97.88;100705.34;5019086;28;19965;-79
2023/03/17 04:27:45;;;;;;;;;;;;;;;5.91;97.02;100695.25;5005804;28;19921;-79
2023/03/17 04:30:12;;;;;;;;;;;;;;;5.68;97.30;100678.00;5018886;28;20346;-79
2023/03/17 04:32:37;;;;;;;;;;;;;;;5.91;97.04;100705.94;5021174;28;19928;-79
2023/03/17 04:35:03;;;;;;;;;;;;;;;5.97;96.78;100691.38;5005632;28;19963;-79
2023/03/17 04:37:28;;;;;;;;;;;;;;;5.98;95.81;100701.06;5022242;28;20002;-79
2023/03/17 04:39:54;;;;;;;;;;;;;;;6.05;96.84;100709.56;5018103;28;19925;-79
2023/03/17 04:42:19;;;;;;;;;;;;;;;6.07;95.86;100713.00;5001550;28;19925;-79
2023/03/17 04:44:45;;;;;;;;;;;;;;;5.87;98.23;100709.72;5019444;28;19968;-79
2023/03/17 04:47:10;;;;;;;;;;;;;;;6.05;95.45;100704.25;5021182;28;19928;-79
2023/03/17 04:49:35;;;;;;;;;;;;;;;6.00;97.97;100712.53;5003122;28;20360;-79
2023/03/17 04:52:01;;;;;;;;;;;;;;;5.96;97.73;100709.16;5018381;28;20280;-79
2023/03/17 04:54:26;;;;;;;;;;;;;;;5.88;99.28;100708.78;5021489;28;19925;-78
2023/03/17 04:56:51;;;;;;;;;;;;;;;5.95;98.24;100710.13;5019892;28;19920;-79
2023/03/17 04:59:17;;;;;;;;;;;;;;;5.94;98.96;100712.88;5005613;28;19987;-79
2023/03/17 05:01:42;;;;;;;;;;;;;;;5.97;99.23;100720.69;5020724;28;20446;-79
2023/03/17 05:04:08;;;;;;;;;;;;;;;5.90;100.00;100709.53;5005966;28;19928;-79
2023/03/17 05:06:33;;;;;;;;;;;;;;;5.96;97.95;100701.16;5007389;28;19921;-79
2023/03/17 05:08:58;;;;;;;;;;;;;;;5.99;98.56;100706.28;5023369;28;20836;-79
2023/03/17 05:11:23;;;;;;;;;;;;;;;5.97;99.72;100710.84;5024814;28;20000;-79
2023/03/17 05:13:49;;;;;;;;;;;;;;;6.06;98.97;100711.28;5025841;28;19917;-78
2023/03/17 05:16:14;;;;;;;;;;;;;;;5.86;100.00;100710.66;5018375;28;19920;-79
2023/03/17 05:18:40;;;;;;;;;;;;;;;5.96;99.79;100702.97;5025222;28;20004;-79
2023/03/17 05:21:06;;;;;;;;;;;;;;;6.00;98.52;100704.53;5008298;28;19925;-78
2023/03/17 05:23:32;;;;;;;;;;;;;;;5.85;100.00;100696.47;5024274;28;19932;-79
2023/03/17 05:25:57;;;;;;;;;;;;;;;5.80;100.00;100682.59;5006004;28;19928;-78
2023/03/17 05:28:23;;;;;;;;;;;;;;;5.78;100.00;100686.28;5023915;28;19956;-79
2023/03/17 05:30:49;;;;;;;;;;;;;;;5.85;99.38;100684.97;5004728;28;19921;-79
2023/03/17 05:33:15;;;;;;;;;;;;;;;5.83;99.85;100686.88;5005188;28;19922;-79
2023/03/17 05:35:40;;;;;;;;;;;;;;;5.86;98.78;100697.34;5004338;28;19987;-79
2023/03/17 05:38:06;;;;;;;;;;;;;;;5.83;99.16;100698.38;5005466;28;20021;-79
2023/03/17 05:40:31;;;;;;;;;;;;;;;5.81;100.00;100708.28;5005030;28;20282;-79
2023/03/17 05:42:56;;;;;;;;;;;;;;;5.62;100.00;100697.88;5021320;28;20006;-79
2023/03/17 05:45:22;;;;;;;;;;;;;;;5.66;100.00;100699.41;5021135;28;19948;-79
2023/03/17 05:47:47;;;;;;;;;;;;;;;5.61;100.00;100701.47;5021281;28;20433;-79
2023/03/17 05:50:12;;;;;;;;;;;;;;;5.52;100.00;100699.34;5024283;28;19921;-79
2023/03/17 05:52:38;;;;;;;;;;;;;;;5.40;100.00;100701.81;5008329;28;20268;-78
2023/03/17 05:55:04;;;;;;;;;;;;;;;5.30;100.00;100705.09;5008968;28;20355;-79
2023/03/17 05:57:29;;;;;;;;;;;;;;;5.21;100.00;100702.00;5004775;28;19925;-79
2023/03/17 05:59:54;;;;;;;;;;;;;;;5.09;100.00;100700.91;5000699;28;19921;-79
2023/03/17 06:02:19;;;;;;;;;;;;;;;5.10;100.00;100702.63;4988280;28;20885;-78
2023/03/17 06:04:45;;;;;;;;;;;;;;;5.24;100.00;100704.50;4992198;28;19983;-78
2023/03/17 06:07:10;;;;;;;;;;;;;;;5.32;100.00;100706.69;4988704;28;20348;-79
2023/03/17 06:09:36;;;;;;;;;;;;;;;5.41;100.00;100702.66;5015260;28;19921;-78
2023/03/17 06:12:01;;;;;;;;;;;;;;;5.46;100.00;100707.69;5001231;28;19957;-79
2023/03/17 06:14:26;;;;;;;;;;;;;;;5.51;100.00;100698.50;4999664;28;20324;-79
2023/03/17 06:16:51;;;;;;;;;;;;;;;5.53;100.00;100701.94;4995538;28;19961;-79
2023/03/17 06:19:17;;;;;;;;;;;;;;;5.63;100.00;100699.59;5019877;28;20020;-79
2023/03/17 06:21:42;;;;;;;;;;;;;;;5.53;100.00;100701.94;5022554;28;19979;-79
2023/03/17 06:24:07;;;;;;;;;;;;;;;5.42;100.00;100701.69;5003790;28;19921;-79
2023/03/17 06:26:33;;;;;;;;;;;;;;;5.47;100.00;100694.31;5019702;28;19998;-79
2023/03/17 06:28:58;;;;;;;;;;;;;;;5.54;100.00;100706.31;5016493;28;20201;-79
2023/03/17 06:31:23;;;;;;;;;;;;;;;5.61;100.00;100703.28;5021727;28;19964;-79
2023/03/17 06:33:48;;;;;;;;;;;;;;;5.55;100.00;100701.84;5024442;28;19964;-79
2023/03/17 06:36:14;;;;;;;;;;;;;;;5.71;100.00;100702.63;5019228;28;19925;-79
2023/03/17 06:38:39;;;;;;;;;;;;;;;5.82;100.00;100699.34;4999412;28;20027;-79
2023/03/17 06:41:06;;;;;;;;;;;;;;;5.97;100.00;100702.03;5022095;28;20398;-79
2023/03/17 06:43:32;;;;;;;;;;;;;;;6.00;100.00;100715.19;5025392;28;20402;-78
2023/03/17 06:45:57;;;;;;;;;;;;;;;6.06;100.00;100713.97;5011857;28;19968;-80
2023/03/17 06:48:22;;;;;;;;;;;;;;;6.05;100.00;100704.25;5019553;28;20027;-80
2023/03/17 06:50:47;;;;;;;;;;;;;;;6.12;100.00;100702.94;5007124;28;20046;-79
2023/03/17 06:53:13;;;;;;;;;;;;;;;6.19;100.00;100693.63;5023107;28;19920;-79
2023/03/17 06:55:38;;;;;;;;;;;;;;;6.25;100.00;100705.69;4996238;28;19930;-79
2023/03/17 06:58:03;;;;;;;;;;;;;;;6.45;100.00;100699.13;5019719;28;19936;-79
2023/03/17 07:00:29;;;;;;;;;;;;;;;6.48;100.00;100701.59;4989341;28;19965;-79
2023/03/17 07:02:54;;;;;;;;;;;;;;;6.52;100.00;100700.44;5002628;28;20415;-79
2023/03/17 07:05:19;;;;;;;;;;;;;;;6.49;100.00;100703.28;5002624;28;19970;-79
2023/03/17 07:07:45;;;;;;;;;;;;;;;6.60;100.00;100702.63;5021830;28;20386;-79
2023/03/17 07:10:12;;;;;;;;;;;;;;;6.80;100.00;100705.84;4998936;28;19921;-79
2023/03/17 07:12:37;;;;;;;;;;;;;;;6.83;100.00;100709.16;5006144;28;20307;-79
2023/03/17 07:15:03;;;;;;;;;;;;;;;6.97;100.00;100710.94;5003177;28;19921;-79
2023/03/17 07:17:29;;;;;;;;;;;;;;;7.10;100.00;100716.34;5018264;28;19928;-79
2023/03/17 07:19:54;;;;;;;;;;;;;;;7.23;100.00;100713.72;4999204;28;19971;-79
2023/03/17 07:22:19;;;;;;;;;;;;;;;7.29;100.00;100715.13;4986935;28;19967;-80
2023/03/17 07:24:47;;;;;;;;;;;;;;;7.46;100.00;100711.34;5020967;28;19921;-79
2023/03/17 07:27:13;;;;;;;;;;;;;;;7.55;100.00;100704.53;5004473;28;19924;-79
2023/03/17 07:29:38;;;;;;;;;;;;;;;7.73;97.04;100707.75;5000442;28;20233;-79
2023/03/17 07:32:05;;;;;;;;;;;;;;;7.83;96.93;100699.97;5016041;28;19947;-79
2023/03/17 07:34:31;;;;;;;;;;;;;;;8.04;92.91;100694.97;5003079;28;19921;-79
2023/03/17 07:36:56;;;;;;;;;;;;;;;8.11;93.78;100702.44;5022111;28;19955;-80
2023/03/17 07:39:21;;;;;;;;;;;;;;;8.23;92.67;100706.06;4985213;28;20005;-79
2023/03/17 07:41:51;;;;;;;;;;;;;;;8.35;91.57;100700.84;5013113;28;20383;-79
2023/03/17 07:44:17;;;;;;;;;;;;;;;8.44;92.47;100702.88;4998403;28;19966;-79
2023/03/17 07:46:42;;;;;;;;;;;;;;;8.51;87.42;100706.84;5004380;28;19921;-79
2023/03/17 07:49:08;;;;;;;;;;;;;;;8.57;89.60;100697.53;5014739;28;20284;-79
2023/03/17 07:51:33;;;;;;;;;;;;;;;8.79;90.33;100707.53;5014425;28;19921;-80
2023/03/17 07:54:02;;;;;;;;;;;;;;;8.81;89.54;100700.25;4997366;28;19921;-79
2023/03/17 07:56:28;;;;;;;;;;;;;;;8.91;87.32;100695.06;4997785;28;19956;-79
2023/03/17 07:58:53;;;;;;;;;;;;;;;8.97;88.94;100693.78;5003043;28;19929;-79
2023/03/17 08:01:19;;;;;;;;;;;;;;;9.09;86.87;100692.84;4995142;28;19921;-79
2023/03/17 08:03:44;;;;;;;;;;;;;;;9.09;83.49;100690.19;5015634;28;19974;-79
2023/03/17 08:06:10;;;;;;;;;;;;;;;9.16;83.30;100687.91;4995987;28;20393;-79
2023/03/17 08:08:35;;;;;;;;;;;;;;;9.34;83.40;100712.47;5002551;28;19917;-78
2023/03/17 08:11:04;;;;;;;;;;;;;;;9.30;80.31;100709.16;5017031;28;20417;-77
2023/03/17 08:13:29;;;;;;;;;;;;;;;9.41;82.43;100700.31;5026352;28;20157;-78
2023/03/17 08:15:55;;;;;;;;;;;;;;;9.47;84.48;100690.97;5016387;28;19921;-79
2023/03/17 08:18:20;;;;;;;;;;;;;;;9.49;85.65;100699.75;5027023;28;19932;-79
2023/03/17 08:20:45;;;;;;;;;;;;;;;9.51;85.33;100708.53;5021934;28;19961;-81
2023/03/17 08:23:10;;;;;;;;;;;;;;;9.36;81.72;100682.88;5023049;28;20296;-76
2023/03/17 08:25:36;;;;;;;;;;;;;;;9.49;80.93;100707.78;5000149;28;19925;-77
2023/03/17 08:28:02;;;;;;;;;;;;;;;9.68;78.60;100703.69;5016847;28;19921;-78
2023/03/17 08:30:27;;;;;;;;;;;;;;;9.73;80.88;100696.16;5001499;28;19928;-78
2023/03/17 08:32:53;;;;;;;;;;;;;;;9.74;78.76;100679.09;5001690;28;19921;-77
2023/03/17 08:35:19;;;;;;;;;;;;;;;9.74;77.40;100692.50;5019504;28;19918;-78
2023/03/17 08:37:45;;;;;;;;;;;;;;;9.92;79.60;100694.75;5022557;28;20284;-78
2023/03/17 08:40:11;;;;;;;;;;;;;;;9.72;81.40;100711.41;5023178;28;19928;-77
2023/03/17 08:42:36;;;;;;;;;;;;;;;9.93;77.73;100710.72;5002376;28;19964;-79
2023/03/17 08:45:03;;;;;;;;;;;;;;;10.25;78.46;100701.13;4998331;28;19952;-79
2023/03/17 08:47:28;;;;;;;;;;;;;;;10.14;80.74;100688.56;5042220;28;20178;-79
2023/03/17 08:49:55;;;;;;;;;;;;;;;10.23;80.38;100682.47;5033801;28;19931;-79
2023/03/17 08:52:20;;;;;;;;;;;;;;;10.46;81.06;100687.88;5033601;28;19947;-78
2023/03/17 08:54:46;;;;;;;;;;;;;;;10.33;77.28;100679.91;5025953;28;20147;-78
2023/03/17 08:57:11;;;;;;;;;;;;;;;10.62;80.55;100672.22;5023111;28;19963;-79
2023/03/17 08:59:36;;;;;;;;;;;;;;;10.76;77.11;100667.59;5028546;28;19925;-78
2023/03/17 09:02:01;;;;;;;;;;;;;;;10.78;75.95;100662.94;5033709;28;20277;-78
2023/03/17 09:04:27;;;;;;;;;;;;;;;10.77;75.85;100664.75;5046676;28;19960;-78
2023/03/17 09:06:53;;;;;;;;;;;;;;;10.68;80.93;100681.63;5035279;28;19921;-77
2023/03/17 09:09:19;;;;;;;;;;;;;;;10.83;74.64;100686.72;5029022;28;20015;-77
2023/03/17 09:11:44;;;;;;;;;;;;;;;11.03;77.29;100685.94;5013300;28;19925;-79
2023/03/17 09:14:10;;;;;;;;;;;;;;;11.31;73.61;100694.41;5009334;28;19998;-78
2023/03/17 09:16:35;;;;;;;;;;;;;;;11.37;76.40;100696.59;5025205;28;19921;-78
2023/03/17 09:19:01;;;;;;;;;;;;;;;11.61;79.28;100692.81;5021471;28;19937;-79
2023/03/17 09:21:26;;;;;;;;;;;;;;;11.78;74.81;100690.53;5008798;28;19928;-77
2023/03/17 09:23:52;;;;;;;;;;;;;;;11.83;72.41;100683.78;5003318;28;19921;-79
2023/03/17 09:26:18;;;;;;;;;;;;;;;11.88;72.02;100693.28;5006609;28;19921;-77
2023/03/17 09:28:44;;;;;;;;;;;;;;;11.67;73.02;100694.13;5026230;28;20369;-77
2023/03/17 09:31:10;;;;;;;;;;;;;;;11.97;72.13;100690.66;5023485;28;19921;-79
2023/03/17 09:33:36;;;;;;;;;;;;;;;11.90;76.33;100691.31;5009568;28;20683;-78
2023/03/17 09:36:01;;;;;;;;;;;;;;;12.00;75.67;100689.56;5042505;28;20359;-78
2023/03/17 09:38:26;;;;;;;;;;;;;;;11.97;73.52;100690.66;5006460;28;19925;-79
2023/03/17 09:41:04;;;;;;;;;;;;;;;12.12;73.76;100685.81;5018933;28;19965;-78
2023/03/17 09:43:36;;;;;;;;;;;;;;;11.90;76.89;100676.03;5003575;28;19921;-78
2023/03/17 09:46:06;;;;;;;;;;;;;;;11.82;73.39;100687.44;5019780;28;20250;-77
2023/03/17 09:48:38;;;;;;;;;;;;;;;11.99;73.75;100704.88;5007503;28;19927;-77
2023/03/17 09:51:05;;;;;;;;;;;;;;;12.05;73.31;100699.94;4998031;28;19921;-80
2023/03/17 09:53:46;;;;;;;;;;;;;;;12.08;73.79;100687.06;5005500;28;19921;-76
2023/03/17 09:56:12;;;;;;;;;;;;;;;12.14;73.77;100685.69;5017898;28;20201;-76
2023/03/17 09:58:37;;;;;;;;;;;;;;;12.27;75.22;100689.03;5020822;28;19932;-76
2023/03/17 10:01:04;;;;;;;;;;;;;;;12.53;74.41;100679.63;5023286;28;19920;-77
2023/03/17 10:03:30;;;;;;;;;;;;;;;12.34;71.36;100683.06;5022787;28;20377;-75
2023/03/17 10:06:34;;;;;;;;;;;;;;;12.22;74.04;100693.06;5023394;28;19990;-74
2023/03/17 10:08:59;;;;;;;;;;;;;;;12.43;72.25;100687.66;4948088;28;19957;-75
2023/03/17 10:11:37;;;;;;;;;;;;;;;12.34;75.04;100685.75;4946169;28;20008;-75
2023/03/17 10:14:04;;;;;;;;;;;;;;;12.45;75.02;100680.28;4972393;28;19927;-75
2023/03/17 10:16:41;;;;;;;;;;;;;;;12.54;74.72;100684.00;5018406;28;19921;-76
2023/03/17 10:19:16;;;;;;;;;;;;;;;12.52;78.08;100681.47;5021960;28;20082;-76
2023/03/17 10:21:49;;;;;;;;;;;;;;;12.43;73.56;100677.75;5022904;28;20275;-76
2023/03/17 10:24:14;;;;;;;;;;;;;;;12.68;74.32;100680.09;4989153;28;20355;-76
2023/03/17 10:26:43;;;;;;;;;;;;;;;12.51;73.43;100687.84;5010700;28;20023;-75
2023/03/17 10:29:22;;;;;;;;;;;;;;;12.54;74.63;100700.16;4995038;28;20195;-76
2023/03/17 10:31:48;;;;;;;;;;;;;;;12.54;75.16;100694.78;4998017;28;20016;-75
2023/03/17 10:34:17;;;;;;;;;;;;;;;12.61;72.45;100695.94;5012401;28;20341;-75
2023/03/17 10:36:44;;;;;;;;;;;;;;;12.72;73.95;100693.13;5004313;28;19952;-78
2023/03/17 10:39:11;;;;;;;;;;;;;;;12.58;72.13;100682.75;5012059;28;19925;-76
2023/03/17 10:41:46;;;;;;;;;;;;;;;12.71;71.79;100694.13;5012562;28;19973;-75
2023/03/17 10:44:20;;;;;;;;;;;;;;;12.83;69.35;100705.66;5008371;28;19945;-75
2023/03/17 10:46:51;;;;;;;;;;;;;;;12.88;70.41;100699.84;5003062;28;19932;-76
2023/03/17 10:49:17;;;;;;;;;;;;;;;13.13;72.25;100705.72;5004743;28;19925;-75
2023/03/17 10:51:45;;;;;;;;;;;;;;;13.44;70.55;100698.38;5004680;28;20472;-75
2023/03/17 10:54:13;;;;;;;;;;;;;;;13.61;66.28;100701.38;4989043;28;19959;-75
2023/03/17 10:56:40;;;;;;;;;;;;;;;13.82;68.55;100706.59;5017466;28;20521;-75
2023/03/17 10:59:18;;;;;;;;;;;;;;;14.32;69.14;100693.81;5003360;28;19925;-75
2023/03/17 11:01:46;;;;;;;;;;;;;;;14.56;63.52;100696.00;5021201;28;19917;-75
2023/03/17 11:04:29;;;;;;;;;;;;;;;15.09;66.32;100699.03;4985412;28;19967;-75
2023/03/17 11:06:56;;;;;;;;;;;;;;;16.09;61.31;100704.31;4998729;28;19935;-76
2023/03/17 11:09:22;;;;;;;;;;;;;;;16.49;56.43;100702.84;5014981;28;19921;-76
2023/03/17 11:11:49;;;;;;;;;;;;;;;17.20;52.48;100708.06;5012824;28;20271;-76
2023/03/17 11:14:15;;;;;;;;;;;;;;;17.99;51.96;100704.88;5001659;28;19928;-76
2023/03/17 11:16:51;;;;;;;;;;;;;;;17.91;50.72;100702.13;5003454;28;20367;-76
2023/03/17 11:19:17;;;;;;;;;;;;;;;17.85;51.32;100691.97;5021943;28;20000;-76
2023/03/17 11:22:03;;;;;;;;;;;;;;;17.69;52.28;100684.69;5002987;28;20019;-76
2023/03/17 11:24:30;;;;;;;;;;;;;;;17.88;51.98;100680.75;5019631;28;19968;-75
2023/03/17 11:26:57;;;;;;;;;;;;;;;17.66;53.73;100675.00;4991435;28;19930;-76
2023/03/17 11:29:40;;;;;;;;;;;;;;;17.78;50.16;100678.22;5021876;28;19943;-76
2023/03/17 11:32:20;;;;;;;;;;;;;;;18.32;50.66;100673.22;5024192;28;19917;-76
2023/03/17 11:35:04;;;;;;;;;;;;;;;19.41;48.00;100677.94;5036707;28;20387;-76
2023/03/17 11:37:35;;;;;;;;;;;;;;;20.03;46.54;100676.91;5009207;28;19932;-76
2023/03/17 11:40:21;;;;;;;;;;;;;;;20.75;43.05;100662.78;5024240;28;20344;-74
2023/03/17 11:42:50;;;;;;;;;;;;;;;20.79;44.26;100656.78;5002541;28;19920;-73
2023/03/17 11:45:18;;;;;;;;;;;;;;;21.38;42.46;100657.63;5020451;28;19929;-73
2023/03/17 11:47:43;;;;;;;;;;;;;;;21.54;41.58;100651.03;5027449;28;20368;-73
2023/03/17 11:50:27;;;;;;;;;;;;;;;22.27;39.25;100654.53;5022211;28;19963;-73
2023/03/17 11:52:56;;;;;;;;;;;;;;;23.11;39.30;100657.19;5015095;28;19997;-73
2023/03/17 11:55:23;;;;;;;;;;;;;;;23.02;38.60;100648.34;4999836;28;19928;-73
2023/03/17 11:57:52;;;;;;;;;;;;;;;22.41;39.51;100647.22;5000478;28;19925;-73
2023/03/17 12:00:26;;;;;;;;;;;;;;;21.72;40.02;100657.94;5029031;28;19928;-74
2023/03/17 12:02:57;;;;;;;;;;;;;;;22.52;38.53;100648.56;5006613;28;19925;-73
2023/03/17 12:05:24;;;;;;;;;;;;;;;22.61;37.74;100644.63;5019358;28;19961;-73
2023/03/17 12:07:57;;;;;;;;;;;;;;;23.28;36.95;100653.03;4998182;28;19929;-73
2023/03/17 12:10:32;;;;;;;;;;;;;;;23.87;38.92;100642.31;4999973;28;20269;-73
2023/03/17 12:13:00;;;;;;;;;;;;;;;24.63;37.83;100633.69;5021945;28;19960;-73
2023/03/17 12:15:33;;;;;;;;;;;;;;;23.71;39.60;100634.50;5001031;28;20329;-74
2023/03/17 12:18:01;;;;;;;;;;;;;;;23.28;38.31;100635.78;5003504;28;19925;-73
2023/03/17 12:20:26;;;;;;;;;;;;;;;22.14;38.77;100611.53;5002435;28;19921;-73
2023/03/17 12:22:53;;;;;;;;;;;;;;;21.80;43.68;100629.63;5005067;28;19925;-74
2023/03/17 12:25:26;;;;;;;;;;;;;;;21.49;40.35;100636.25;5015174;28;20132;-73
2023/03/17 12:28:07;;;;;;;;;;;;;;;22.25;42.86;100629.28;5016424;28;19921;-74
2023/03/17 12:31:05;;;;;;;;;;;;;;;22.21;39.86;100630.72;5001355;28;19921;-73
2023/03/17 12:33:35;;;;;;;;;;;;;;;21.15;45.05;100616.03;4990851;28;19928;-74
2023/03/17 12:36:01;;;;;;;;;;;;;;;21.07;42.75;100623.28;5021926;28;19928;-73
2023/03/17 12:38:29;;;;;;;;;;;;;;;22.08;40.34;100623.28;5005157;28;19976;-73
2023/03/17 12:40:57;;;;;;;;;;;;;;;21.64;41.46;100622.56;5027721;28;19921;-74
2023/03/17 12:43:25;;;;;;;;;;;;;;;21.39;40.42;100623.81;5028226;28;20438;-73